»·PEaware :: N149CD KVNY-L45

N149CD :: KVNY-L45

FLIGHT INFORMATION

Flight Status: Arrived
Operator: Privately registered:
United States
More flights under this callsign
Pilot: Nathan E. (30132)
Aircraft: CESSNA 172 SKYHAWK
(C172)
More flights by this aircraft type
Origin: KVNY Van Nuys
United States
Destination: L45 Bakersfield Mun
United States
More flights between these airports :: More routes between these airports
Route: CANOG3 GMN V23 LAMPE
File this flight plan on PilotEdge
Remarks:
Altitude:
(Current/Filed)
10,000ft
Speed:
(Current/Filed)
110kts
Departed: 30-Aug-20 01:03 PM
Arrived: 30-Aug-20 01:51 PM
Distance/Time
Traveled:
71nm/0:48
Distance/Time
To Go:
Arrived

Flight Plot

Page will automatically refresh every two minutes.

Flight plan parsing failed; only flown route is shown


Map Options




Map Legend


Flown Route
Filed Route
Departure Airport
Arrival Airport
Navaid (VOR, NDB)
Fix

Horizontal Profiles

Position Reports

Time Latitude Longitude Heading Altitude Ground
Speed
30-Aug-20 12:47 34.215503 -118.498557 2 806ft 0kts
30-Aug-20 12:48 34.215503 -118.498557 2 806ft 0kts
30-Aug-20 12:49 34.215503 -118.498557 2 806ft 0kts
30-Aug-20 12:50 34.215503 -118.498557 2 806ft 0kts
30-Aug-20 12:51 34.215503 -118.498557 2 806ft 0kts
30-Aug-20 12:52 34.215503 -118.498557 2 806ft 0kts
30-Aug-20 12:53 34.215503 -118.498557 2 806ft 0kts
30-Aug-20 12:54 34.215503 -118.498557 2 806ft 0kts
30-Aug-20 12:55 34.215503 -118.498557 2 806ft 0kts
30-Aug-20 12:56 34.217434 -118.496464 46 806ft 10kts
30-Aug-20 12:57 34.217420 -118.492278 5 806ft 9kts
30-Aug-20 12:58 34.219035 -118.493014 97 806ft 0kts
30-Aug-20 12:59 34.219035 -118.493014 97 806ft 0kts
30-Aug-20 13:00 34.219035 -118.493014 97 806ft 0kts
30-Aug-20 13:01 34.218745 -118.491292 144 806ft 12kts
30-Aug-20 13:02 34.202195 -118.489789 174 1222ft 74kts
30-Aug-20 13:03 34.180716 -118.488443 191 2037ft 78kts
30-Aug-20 13:04 34.164750 -118.506678 224 2826ft 80kts
30-Aug-20 13:05 34.149545 -118.525436 231 3600ft 76kts
30-Aug-20 13:06 34.161900 -118.539679 351 4301ft 81kts
30-Aug-20 13:07 34.184498 -118.542489 351 4970ft 82kts
30-Aug-20 13:08 34.207099 -118.546290 336 5598ft 82kts
30-Aug-20 13:09 34.228059 -118.557838 334 6190ft 83kts
30-Aug-20 13:10 34.249529 -118.569752 336 6741ft 85kts
30-Aug-20 13:11 34.271350 -118.581802 336 7271ft 87kts
30-Aug-20 13:12 34.293379 -118.593971 336 7770ft 88kts
30-Aug-20 13:13 34.315920 -118.606432 336 8255ft 89kts
30-Aug-20 13:14 34.338689 -118.619028 336 8718ft 90kts
30-Aug-20 13:15 34.361713 -118.631768 334 9164ft 90kts
30-Aug-20 13:16 34.384763 -118.644551 334 9590ft 91kts
30-Aug-20 13:17 34.408172 -118.657532 334 9998ft 92kts
30-Aug-20 13:18 34.434911 -118.672336 334 10056ft 114kts
30-Aug-20 13:19 34.463357 -118.688057 334 10055ft 113kts
30-Aug-20 13:20 34.492169 -118.704049 334 10053ft 114kts
30-Aug-20 13:21 34.520865 -118.720004 334 10061ft 113kts
30-Aug-20 13:22 34.550018 -118.735114 336 10059ft 114kts
30-Aug-20 13:23 34.579342 -118.749684 336 10067ft 113kts
30-Aug-20 13:24 34.608480 -118.764145 336 10085ft 113kts
30-Aug-20 13:25 34.637488 -118.778544 336 10105ft 112kts
30-Aug-20 13:26 34.666127 -118.792770 336 10171ft 109kts
30-Aug-20 13:27 34.694751 -118.807004 336 10196ft 112kts
30-Aug-20 13:28 34.723558 -118.821329 336 10209ft 112kts
30-Aug-20 13:29 34.752661 -118.835817 336 10201ft 113kts
30-Aug-20 13:30 34.781934 -118.850399 336 10191ft 114kts
30-Aug-20 13:31 34.811786 -118.863817 342 10179ft 115kts
30-Aug-20 13:32 34.842467 -118.874562 343 10169ft 115kts
30-Aug-20 13:33 34.873299 -118.885271 346 10157ft 114kts
30-Aug-20 13:34 34.903530 -118.895638 347 10147ft 112kts
30-Aug-20 13:35 34.933403 -118.905931 347 10139ft 110kts
30-Aug-20 13:36 34.962632 -118.916011 347 10131ft 108kts
30-Aug-20 13:37 34.991370 -118.925812 347 10122ft 104kts
30-Aug-20 13:38 35.019270 -118.935298 347 9909ft 108kts
30-Aug-20 13:39 35.050306 -118.945714 346 8911ft 117kts
30-Aug-20 13:40 35.081003 -118.956071 346 7897ft 112kts
30-Aug-20 13:41 35.110831 -118.966128 345 6679ft 112kts
30-Aug-20 13:42 35.141282 -118.974486 353 5190ft 114kts
30-Aug-20 13:43 35.172363 -118.977786 353 3690ft 111kts
30-Aug-20 13:44 35.201551 -118.981392 352 2728ft 100kts
30-Aug-20 13:45 35.229051 -118.984825 352 2175ft 99kts
30-Aug-20 13:46 35.256531 -118.988092 352 1634ft 99kts
30-Aug-20 13:47 35.281857 -118.991027 351 1148ft 80kts
30-Aug-20 13:48 35.302810 -118.993458 350 742ft 66kts
30-Aug-20 13:49 35.319220 -118.995376 349 395ft 57kts
30-Aug-20 13:50 35.324216 -118.997053 171 378ft 7kts
30-Aug-20 13:51 35.324220 -118.997430 0 378ft 0kts

Navigation Log

Ident Type
Flight plan parsing failed, navigation log unavailable